Time;durP1;ratioP1;P1;durP2;ratioP2;P2;SDS_P1;SDS_P2;PMS_P1;PMS_P2;Temp;Humidity;BMP_temperature;BMP_pressure;BME280_temperature;BME280_humidity;BME280_pressure;Samples;Min_cycle;Max_cycle;Signal;HPM_P1;HPM_P2
2021/04/18 00:00:52;;;;;;;13.93;9.13;;;5.00;99.90;;;;;;5053348;28;20102;-76
2021/04/18 00:03:18;;;;;;;9.48;8.27;;;5.00;99.90;;;;;;5069275;28;20101;-75
2021/04/18 00:05:43;;;;;;;10.02;8.85;;;5.00;99.90;;;;;;5066885;28;20077;-75
2021/04/18 00:08:10;;;;;;;11.45;9.27;;;5.00;99.90;;;;;;5059691;28;20089;-76
2021/04/18 00:10:37;;;;;;;10.02;9.02;;;5.10;99.90;;;;;;5040942;28;20102;-76
2021/04/18 00:13:04;;;;;;;10.55;8.20;;;5.10;99.90;;;;;;5048560;28;20132;-76
2021/04/18 00:15:30;;;;;;;10.52;9.35;;;5.00;99.90;;;;;;5030322;28;20078;-76
2021/04/18 00:17:56;;;;;;;11.75;8.95;;;5.00;99.90;;;;;;5048536;28;20077;-76
2021/04/18 00:20:21;;;;;;;11.10;9.00;;;4.90;99.90;;;;;;5047962;28;20168;-75
2021/04/18 00:22:49;;;;;;;10.70;9.02;;;5.00;99.90;;;;;;5053594;28;20116;-75
2021/04/18 00:25:18;;;;;;;11.45;9.90;;;4.90;99.90;;;;;;5051158;28;20081;-75
2021/04/18 00:27:44;;;;;;;12.52;9.77;;;4.90;99.90;;;;;;5046113;28;20081;-73
2021/04/18 00:30:13;;;;;;;11.60;9.48;;;4.90;99.90;;;;;;5048312;28;20112;-75
2021/04/18 00:32:39;;;;;;;10.18;8.82;;;4.90;99.90;;;;;;5030617;28;20085;-73
2021/04/18 00:35:06;;;;;;;12.65;10.68;;;5.00;99.90;;;;;;5060744;28;20069;-75
2021/04/18 00:37:32;;;;;;;12.10;9.55;;;4.90;99.90;;;;;;5057619;28;20078;-76
2021/04/18 00:39:58;;;;;;;11.05;9.25;;;4.90;99.90;;;;;;5053255;28;20084;-75
2021/04/18 00:42:23;;;;;;;11.50;9.27;;;4.90;99.90;;;;;;5047288;28;20687;-76
2021/04/18 00:44:50;;;;;;;10.68;9.23;;;4.90;99.90;;;;;;5053498;28;20101;-75
2021/04/18 00:47:17;;;;;;;11.35;9.15;;;4.90;99.90;;;;;;5047990;28;20105;-75
2021/04/18 00:49:44;;;;;;;10.82;8.75;;;4.90;99.90;;;;;;5061326;28;20174;-76
2021/04/18 00:52:10;;;;;;;12.25;9.80;;;4.80;99.90;;;;;;5048629;28;20127;-75
2021/04/18 00:54:36;;;;;;;13.50;9.27;;;4.80;99.90;;;;;;5060576;28;20090;-76
2021/04/18 00:57:02;;;;;;;11.30;9.23;;;4.80;99.90;;;;;;5051289;28;20118;-73
2021/04/18 00:59:28;;;;;;;10.90;9.80;;;4.80;99.90;;;;;;5048297;28;20074;-76
2021/04/18 01:01:53;;;;;;;10.85;9.32;;;4.90;99.90;;;;;;5030874;28;20085;-74
2021/04/18 01:04:19;;;;;;;10.95;9.75;;;4.90;99.90;;;;;;5029975;28;20120;-75
2021/04/18 01:06:44;;;;;;;16.58;12.35;;;4.90;99.90;;;;;;5046425;28;20109;-73
2021/04/18 01:09:10;;;;;;;15.43;12.63;;;4.90;99.90;;;;;;5046516;28;20180;-75
2021/04/18 01:11:35;;;;;;;15.30;12.25;;;4.90;99.90;;;;;;5045837;28;20094;-75
2021/04/18 01:14:01;;;;;;;14.35;11.77;;;4.90;99.90;;;;;;5058117;28;20089;-74
2021/04/18 01:16:27;;;;;;;15.27;11.40;;;4.90;99.90;;;;;;5044959;28;20415;-73
2021/04/18 01:18:52;;;;;;;14.30;10.93;;;5.00;99.90;;;;;;5051463;28;20143;-75
2021/04/18 01:21:18;;;;;;;13.88;11.55;;;4.90;99.90;;;;;;5059358;28;20077;-75
2021/04/18 01:23:43;;;;;;;14.48;11.45;;;5.00;99.90;;;;;;5058288;28;20124;-75
2021/04/18 01:26:09;;;;;;;12.95;10.18;;;4.90;99.90;;;;;;5058724;28;20120;-75
2021/04/18 01:28:35;;;;;;;12.85;10.98;;;4.90;99.90;;;;;;5050615;28;20078;-76
2021/04/18 01:31:04;;;;;;;12.68;10.18;;;4.90;99.90;;;;;;5049374;28;20092;-73
2021/04/18 01:33:30;;;;;;;11.15;9.73;;;4.90;99.90;;;;;;5049487;28;20168;-75
2021/04/18 01:35:56;;;;;;;10.82;9.32;;;5.00;99.90;;;;;;5046055;28;20073;-76
2021/04/18 01:38:22;;;;;;;11.23;9.50;;;4.90;99.90;;;;;;5050001;28;20084;-75
2021/04/18 01:40:48;;;;;;;12.75;9.90;;;4.80;99.90;;;;;;5051372;28;20077;-73
2021/04/18 01:43:19;;;;;;;13.25;9.57;;;4.80;99.90;;;;;;5033652;28;20105;-75
2021/04/18 01:45:47;;;;;;;13.57;10.27;;;4.70;99.90;;;;;;5055125;28;20156;-74
2021/04/18 01:48:13;;;;;;;13.10;10.65;;;4.70;99.90;;;;;;5053046;28;20073;-75
2021/04/18 01:50:57;;;;;;;12.75;10.45;;;4.70;99.90;;;;;;5051565;28;20089;-75
2021/04/18 01:53:22;;;;;;;13.48;10.57;;;4.60;99.90;;;;;;5051685;28;20172;-76
2021/04/18 01:55:48;;;;;;;11.55;10.25;;;4.60;99.90;;;;;;5059435;28;20168;-74
2021/04/18 01:58:14;;;;;;;12.52;10.00;;;4.60;99.90;;;;;;5053224;28;20085;-74
2021/04/18 02:00:40;;;;;;;15.23;11.50;;;4.60;99.90;;;;;;5073414;28;20475;-75
2021/04/18 02:03:05;;;;;;;14.30;11.48;;;4.70;99.90;;;;;;5049552;28;22034;-75
2021/04/18 02:05:33;;;;;;;14.95;11.57;;;4.80;99.90;;;;;;5052168;28;20168;-76
2021/04/18 02:07:59;;;;;;;14.18;11.07;;;4.80;99.90;;;;;;5032395;28;20086;-76
2021/04/18 02:10:25;;;;;;;12.35;10.73;;;4.80;99.90;;;;;;5051111;28;20589;-76
2021/04/18 02:12:52;;;;;;;13.20;10.02;;;4.90;99.90;;;;;;5056886;28;20123;-76
2021/04/18 02:15:18;;;;;;;13.43;10.65;;;4.90;99.90;;;;;;5050817;28;20164;-74
2021/04/18 02:17:43;;;;;;;12.05;10.15;;;4.90;99.90;;;;;;5049753;28;20074;-76
2021/04/18 02:20:09;;;;;;;12.88;10.63;;;4.80;99.90;;;;;;5051869;28;20084;-74
2021/04/18 02:22:35;;;;;;;10.93;9.65;;;4.90;99.90;;;;;;5050275;28;20088;-75
2021/04/18 02:25:02;;;;;;;12.57;9.88;;;4.90;99.90;;;;;;5036715;28;20085;-76
2021/04/18 02:27:28;;;;;;;14.43;10.20;;;4.80;99.90;;;;;;5050424;28;20085;-76
2021/04/18 02:29:55;;;;;;;13.80;11.00;;;4.80;99.90;;;;;;5050052;28;20076;-76
2021/04/18 02:32:21;;;;;;;12.93;11.00;;;4.80;99.90;;;;;;5050510;28;20127;-76
2021/04/18 02:34:47;;;;;;;13.35;10.52;;;4.80;99.90;;;;;;5049483;28;20081;-75
2021/04/18 02:37:13;;;;;;;13.25;9.93;;;4.70;99.90;;;;;;5048696;28;20070;-75
2021/04/18 02:39:39;;;;;;;14.20;11.93;;;4.70;99.90;;;;;;5048677;28;20076;-75
2021/04/18 02:42:05;;;;;;;11.98;10.10;;;4.70;99.90;;;;;;5049512;28;20088;-76
2021/04/18 02:44:30;;;;;;;14.90;11.23;;;4.70;99.90;;;;;;5059002;28;20136;-76
2021/04/18 02:46:56;;;;;;;13.63;10.48;;;4.50;99.90;;;;;;5049724;28;20101;-75
2021/04/18 02:49:22;;;;;;;12.60;10.45;;;4.60;99.90;;;;;;5064716;28;20073;-75
2021/04/18 02:51:48;;;;;;;12.35;10.55;;;4.70;99.90;;;;;;5051592;28;20089;-75
2021/04/18 02:54:13;;;;;;;15.52;11.15;;;4.60;99.90;;;;;;5062669;28;20093;-76
2021/04/18 02:56:39;;;;;;;15.77;11.25;;;4.60;99.90;;;;;;5063500;28;20085;-75
2021/04/18 02:59:04;;;;;;;15.57;11.90;;;4.60;99.90;;;;;;5069860;28;20077;-76
2021/04/18 03:01:30;;;;;;;14.20;10.43;;;4.60;99.90;;;;;;5055075;28;20171;-75
2021/04/18 03:03:55;;;;;;;12.98;10.80;;;4.70;99.90;;;;;;5050982;28;20081;-77
2021/04/18 03:06:21;;;;;;;14.13;11.10;;;4.70;99.90;;;;;;5050269;28;20066;-75
2021/04/18 03:08:47;;;;;;;14.00;11.15;;;4.60;99.90;;;;;;5051761;28;20574;-75
2021/04/18 03:11:13;;;;;;;12.70;11.40;;;4.70;99.90;;;;;;5060773;28;20535;-75
2021/04/18 03:13:38;;;;;;;13.80;10.48;;;4.70;99.90;;;;;;5055686;28;20108;-75
2021/04/18 03:16:04;;;;;;;16.08;10.93;;;4.70;99.90;;;;;;5064596;28;20160;-75
2021/04/18 03:18:31;;;;;;;14.23;11.70;;;4.50;99.90;;;;;;5053674;28;20077;-75
2021/04/18 03:20:57;;;;;;;14.02;11.02;;;4.50;99.90;;;;;;5065165;28;20566;-76
2021/04/18 03:23:22;;;;;;;14.07;10.40;;;4.60;99.90;;;;;;5056572;28;20089;-75
2021/04/18 03:25:48;;;;;;;14.70;10.85;;;4.70;99.90;;;;;;5056025;28;20081;-76
2021/04/18 03:28:14;;;;;;;13.23;11.02;;;4.60;99.90;;;;;;5069571;28;20088;-75
2021/04/18 03:30:40;;;;;;;12.90;10.68;;;4.60;99.90;;;;;;5053335;28;20101;-75
2021/04/18 03:33:06;;;;;;;14.15;11.60;;;4.50;99.90;;;;;;5052972;28;20459;-76
2021/04/18 03:35:31;;;;;;;15.05;11.85;;;4.40;99.90;;;;;;5067481;28;20088;-75
2021/04/18 03:37:57;;;;;;;13.57;11.07;;;4.40;99.90;;;;;;5059243;28;20069;-75
2021/04/18 03:40:23;;;;;;;15.48;11.25;;;4.40;99.90;;;;;;5054210;28;20077;-75
2021/04/18 03:42:49;;;;;;;13.55;10.50;;;4.40;99.90;;;;;;5056388;28;20077;-75
2021/04/18 03:45:15;;;;;;;14.73;11.35;;;4.50;99.90;;;;;;5052582;28;20077;-76
2021/04/18 03:47:41;;;;;;;15.50;11.55;;;4.50;99.90;;;;;;5050024;28;20077;-75
2021/04/18 03:50:08;;;;;;;14.30;12.68;;;4.40;99.90;;;;;;5068978;28;20134;-75
2021/04/18 03:52:33;;;;;;;14.88;11.60;;;4.40;99.90;;;;;;5051557;28;20077;-75
2021/04/18 03:54:59;;;;;;;14.00;11.25;;;4.40;99.90;;;;;;5069306;28;20084;-75
2021/04/18 03:57:24;;;;;;;13.07;10.88;;;4.30;99.90;;;;;;5069120;28;20061;-75
2021/04/18 03:59:50;;;;;;;14.77;11.00;;;4.40;99.90;;;;;;5036742;28;20539;-75
2021/04/18 04:02:16;;;;;;;14.48;10.98;;;4.40;99.90;;;;;;5049964;28;20069;-76
2021/04/18 04:04:41;;;;;;;12.82;10.60;;;4.40;99.90;;;;;;5054102;28;20097;-77
2021/04/18 04:07:07;;;;;;;12.73;10.38;;;4.30;99.90;;;;;;5046618;28;20069;-75
2021/04/18 04:09:32;;;;;;;16.83;12.93;;;4.30;99.90;;;;;;5049908;28;20069;-75
2021/04/18 04:11:58;;;;;;;15.13;11.05;;;4.30;99.90;;;;;;5033316;28;20107;-75
2021/04/18 04:14:24;;;;;;;16.20;10.50;;;4.40;99.90;;;;;;5057079;28;20103;-75
2021/04/18 04:16:50;;;;;;;14.18;10.45;;;4.40;99.90;;;;;;5059178;28;20219;-75
2021/04/18 04:19:15;;;;;;;14.68;11.75;;;4.30;99.90;;;;;;5059403;28;20582;-75
2021/04/18 04:21:41;;;;;;;13.98;10.55;;;4.30;99.90;;;;;;5051324;28;20160;-75
2021/04/18 04:24:07;;;;;;;14.30;11.45;;;4.40;99.90;;;;;;5043979;28;20093;-75
2021/04/18 04:26:32;;;;;;;13.05;10.63;;;4.40;99.90;;;;;;5056673;28;20085;-75
2021/04/18 04:28:58;;;;;;;12.55;10.00;;;4.50;99.90;;;;;;5068025;28;20080;-75
2021/04/18 04:31:23;;;;;;;14.82;12.10;;;4.40;99.90;;;;;;5047754;28;20559;-75
2021/04/18 04:33:49;;;;;;;14.85;11.23;;;4.40;99.90;;;;;;5055863;28;20588;-76
2021/04/18 04:36:14;;;;;;;13.15;10.90;;;4.40;99.90;;;;;;5064526;28;20135;-75
2021/04/18 04:38:40;;;;;;;13.98;10.38;;;4.50;99.90;;;;;;5061060;28;20134;-75
2021/04/18 04:41:06;;;;;;;12.40;10.07;;;4.40;99.90;;;;;;5061096;28;20127;-75
2021/04/18 04:43:33;;;;;;;13.30;11.32;;;4.40;99.90;;;;;;5050238;28;20105;-75
2021/04/18 04:45:58;;;;;;;13.63;11.45;;;4.30;99.90;;;;;;5049271;28;20595;-74
2021/04/18 04:48:24;;;;;;;13.40;11.40;;;4.30;99.90;;;;;;5056922;28;20126;-76
2021/04/18 04:50:50;;;;;;;15.15;12.15;;;4.40;99.90;;;;;;5055292;28;20105;-75
2021/04/18 04:53:15;;;;;;;14.55;11.80;;;4.40;99.90;;;;;;5063815;28;20625;-75
2021/04/18 04:55:43;;;;;;;17.33;12.60;;;4.40;99.90;;;;;;5052517;28;20143;-76
2021/04/18 04:58:09;;;;;;;14.10;11.75;;;4.40;99.90;;;;;;5060450;28;20070;-75
2021/04/18 05:00:35;;;;;;;14.80;12.15;;;4.40;99.90;;;;;;5049320;28;20082;-75
2021/04/18 05:03:00;;;;;;;19.30;13.40;;;4.50;99.90;;;;;;5053544;28;20829;-75
2021/04/18 05:05:26;;;;;;;16.73;12.95;;;4.50;99.90;;;;;;5048087;28;21980;-76
2021/04/18 05:07:52;;;;;;;18.17;12.73;;;4.40;99.90;;;;;;5052080;28;20090;-75
2021/04/18 05:10:17;;;;;;;15.88;12.57;;;4.40;99.90;;;;;;5063876;28;20097;-74
2021/04/18 05:12:43;;;;;;;17.58;13.50;;;4.30;99.90;;;;;;5067748;28;20073;-75
2021/04/18 05:15:09;;;;;;;15.55;12.43;;;4.30;99.90;;;;;;5061179;28;20081;-75
2021/04/18 05:17:35;;;;;;;17.75;13.02;;;4.30;99.90;;;;;;5057721;28;20113;-75
2021/04/18 05:20:00;;;;;;;16.77;13.15;;;4.30;99.90;;;;;;5067890;28;20146;-75
2021/04/18 05:22:26;;;;;;;18.75;14.07;;;4.40;99.90;;;;;;5053946;28;20606;-74
2021/04/18 05:24:51;;;;;;;17.63;12.88;;;4.40;99.90;;;;;;5064957;28;20097;-74
2021/04/18 05:27:18;;;;;;;16.42;13.30;;;4.30;99.90;;;;;;5070840;28;20069;-76
2021/04/18 05:29:44;;;;;;;16.63;13.48;;;4.30;99.90;;;;;;5054493;28;20164;-75
2021/04/18 05:32:11;;;;;;;16.52;12.77;;;4.30;99.90;;;;;;5052299;28;20201;-74
2021/04/18 05:34:36;;;;;;;19.95;14.07;;;4.40;99.90;;;;;;5072104;28;20496;-76
2021/04/18 05:37:02;;;;;;;19.10;13.82;;;4.30;99.90;;;;;;5057582;28;20085;-74
2021/04/18 05:39:28;;;;;;;17.65;13.70;;;4.30;99.90;;;;;;5057928;28;20094;-76
2021/04/18 05:41:54;;;;;;;18.35;13.63;;;4.20;99.90;;;;;;5058403;28;20119;-74
2021/04/18 05:44:20;;;;;;;18.00;14.13;;;4.30;99.90;;;;;;5060457;28;20116;-75
2021/04/18 05:46:45;;;;;;;18.50;14.60;;;4.30;99.90;;;;;;5070789;28;20489;-75
2021/04/18 05:49:11;;;;;;;20.80;14.77;;;4.30;99.90;;;;;;5050630;28;20081;-74
2021/04/18 05:51:37;;;;;;;19.77;13.93;;;4.40;99.90;;;;;;5063047;28;20188;-75
2021/04/18 05:54:04;;;;;;;17.20;13.48;;;4.40;99.90;;;;;;5054455;28;20097;-77
2021/04/18 05:56:29;;;;;;;20.55;14.68;;;4.40;99.90;;;;;;5056685;28;20438;-75
2021/04/18 05:58:55;;;;;;;21.20;14.73;;;4.40;99.90;;;;;;5057686;28;20070;-75
2021/04/18 06:01:25;;;;;;;33.35;19.98;;;4.30;99.90;;;;;;5062501;28;20088;-76
2021/04/18 06:03:54;;;;;;;25.80;16.60;;;4.30;99.90;;;;;;5060191;28;20085;-75
2021/04/18 06:06:21;;;;;;;25.30;18.10;;;4.40;99.90;;;;;;5055295;28;20069;-73
2021/04/18 06:08:46;;;;;;;21.65;15.40;;;4.40;99.90;;;;;;5069535;28;20076;-74
2021/04/18 06:11:12;;;;;;;25.55;17.17;;;4.40;99.90;;;;;;5070790;28;20485;-75
2021/04/18 06:13:37;;;;;;;23.02;16.05;;;4.40;99.90;;;;;;5058030;28;20162;-75
2021/04/18 06:16:04;;;;;;;22.67;15.50;;;4.40;99.90;;;;;;5061050;28;20100;-75
2021/04/18 06:18:29;;;;;;;20.08;14.85;;;4.40;99.90;;;;;;5059783;28;20080;-75
2021/04/18 06:20:55;;;;;;;22.13;15.95;;;4.40;99.90;;;;;;5052482;28;20086;-75
2021/04/18 06:23:22;;;;;;;21.73;16.13;;;4.40;99.90;;;;;;5054555;28;20439;-75
2021/04/18 06:25:48;;;;;;;23.27;15.73;;;4.40;99.90;;;;;;5051319;28;20578;-76
2021/04/18 06:28:14;;;;;;;20.75;15.23;;;4.40;99.90;;;;;;5067027;28;20073;-76
2021/04/18 06:30:39;;;;;;;22.52;15.70;;;4.50;99.90;;;;;;5067015;28;20093;-76
2021/04/18 06:33:05;;;;;;;19.58;15.10;;;4.50;99.90;;;;;;5059055;28;20089;-75
2021/04/18 06:35:31;;;;;;;19.00;14.40;;;4.50;99.90;;;;;;5055426;28;20081;-75
2021/04/18 06:37:56;;;;;;;18.77;14.20;;;4.50;99.90;;;;;;5053456;28;20573;-75
2021/04/18 06:40:22;;;;;;;20.40;15.55;;;4.60;99.90;;;;;;5049027;28;20077;-75
2021/04/18 06:42:53;;;;;;;19.90;14.00;;;4.60;99.90;;;;;;5051949;28;20077;-75
2021/04/18 06:45:18;;;;;;;17.95;13.80;;;4.60;99.90;;;;;;5033491;28;20112;-75
2021/04/18 06:47:46;;;;;;;18.80;14.20;;;4.70;99.90;;;;;;5060916;28;20105;-76
2021/04/18 06:50:13;;;;;;;18.50;14.05;;;4.70;99.90;;;;;;5061646;28;20084;-75
2021/04/18 06:52:39;;;;;;;20.52;15.35;;;4.70;99.90;;;;;;5051982;28;20514;-75
2021/04/18 06:55:07;;;;;;;19.58;14.70;;;4.70;99.90;;;;;;5055949;28;20081;-75
2021/04/18 06:57:34;;;;;;;22.73;16.77;;;4.70;99.90;;;;;;5069153;28;20209;-75
2021/04/18 07:00:00;;;;;;;21.67;15.50;;;4.70;99.90;;;;;;5063243;28;20079;-75
2021/04/18 07:02:29;;;;;;;18.95;14.63;;;4.70;99.90;;;;;;5062334;28;20077;-75
2021/04/18 07:04:58;;;;;;;22.30;15.15;;;4.70;99.90;;;;;;5070826;28;20097;-75
2021/04/18 07:07:32;;;;;;;18.38;13.65;;;4.70;99.90;;;;;;5069716;28;20115;-75
2021/04/18 07:09:58;;;;;;;21.10;14.88;;;4.60;99.90;;;;;;5065907;28;20115;-75
2021/04/18 07:12:26;;;;;;;17.65;13.77;;;4.50;99.90;;;;;;5041140;28;20077;-75
2021/04/18 07:14:51;;;;;;;19.27;14.13;;;4.60;99.90;;;;;;5051218;28;20101;-74
2021/04/18 07:17:17;;;;;;;18.50;14.35;;;4.60;99.90;;;;;;5064278;28;20088;-75
2021/04/18 07:19:44;;;;;;;18.50;14.05;;;4.70;99.90;;;;;;5057753;28;20065;-75
2021/04/18 07:22:11;;;;;;;17.83;12.60;;;4.80;99.90;;;;;;5033053;28;20088;-75
2021/04/18 07:24:56;;;;;;;20.13;13.68;;;4.70;99.90;;;;;;5051690;28;20444;-75
2021/04/18 07:27:22;;;;;;;;;;;4.80;99.90;;;;;;5050205;28;20547;-75
2021/04/18 07:29:59;;;;;;;18.45;14.48;;;4.80;99.90;;;;;;5062554;28;19964;-75
2021/04/18 07:32:27;;;;;;;18.63;14.00;;;4.80;99.90;;;;;;5065384;28;20143;-76
2021/04/18 07:34:53;;;;;;;19.42;14.48;;;4.90;99.90;;;;;;5047221;28;20616;-76
2021/04/18 07:37:25;;;;;;;18.55;13.13;;;5.00;99.90;;;;;;5050716;28;20085;-76
2021/04/18 07:40:03;;;;;;;17.85;14.20;;;5.00;99.90;;;;;;5035502;28;20352;-75
2021/04/18 07:42:32;;;;;;;18.55;13.48;;;5.00;99.90;;;;;;5040405;28;20077;-76
2021/04/18 07:44:59;;;;;;;18.17;14.75;;;5.00;99.90;;;;;;5056604;28;20105;-76
2021/04/18 07:47:26;;;;;;;21.15;14.80;;;5.00;99.90;;;;;;5058680;28;20227;-75
2021/04/18 07:49:53;;;;;;;19.48;14.60;;;5.00;99.90;;;;;;5052368;28;20076;-75
2021/04/18 07:52:19;;;;;;;20.98;16.23;;;5.10;99.90;;;;;;5046134;28;20097;-75
2021/04/18 07:54:45;;;;;;;17.95;14.27;;;5.10;99.90;;;;;;5050373;28;20638;-74
2021/04/18 07:57:11;;;;;;;20.17;15.60;;;5.10;99.90;;;;;;5062791;28;20183;-74
2021/04/18 07:59:38;;;;;;;20.05;15.50;;;5.20;99.90;;;;;;5053718;28;20077;-75
2021/04/18 08:02:04;;;;;;;21.17;15.85;;;5.20;99.90;;;;;;5057856;28;20069;-75
2021/04/18 08:04:31;;;;;;;19.40;14.80;;;5.20;99.90;;;;;;5058988;28;20696;-74
2021/04/18 08:06:59;;;;;;;20.98;15.10;;;5.20;99.90;;;;;;5055872;28;20142;-73
2021/04/18 08:09:26;;;;;;;22.38;16.80;;;5.10;99.90;;;;;;5039262;28;20586;-75
2021/04/18 08:12:12;;;;;;;20.02;14.35;;;5.10;99.90;;;;;;5060073;28;20101;-74
2021/04/18 08:14:41;;;;;;;20.40;15.40;;;5.20;99.90;;;;;;5052671;28;20582;-76
2021/04/18 08:17:15;;;;;;;19.80;15.25;;;5.10;99.90;;;;;;5051268;28;20325;-76
2021/04/18 08:19:58;;;;;;;20.77;15.10;;;5.10;99.90;;;;;;5056274;28;20068;-75
2021/04/18 08:22:25;;;;;;;24.88;19.45;;;5.10;99.90;;;;;;5059771;28;20096;-76
2021/04/18 08:25:07;;;;;;;20.85;15.55;;;5.10;99.90;;;;;;5058356;28;20089;-75
2021/04/18 08:28:00;;;;;;;18.73;14.77;;;5.10;99.90;;;;;;5039935;28;20130;-75
2021/04/18 08:30:26;;;;;;;22.10;16.13;;;5.10;99.90;;;;;;5055358;28;20137;-76
2021/04/18 08:32:52;;;;;;;21.42;15.45;;;5.20;99.90;;;;;;5060995;28;20561;-76
2021/04/18 08:35:20;;;;;;;21.42;16.02;;;5.20;99.90;;;;;;5060591;28;20077;-76
2021/04/18 08:38:12;;;;;;;22.77;16.40;;;5.20;99.90;;;;;;5057975;28;20065;-75
2021/04/18 08:40:38;;;;;;;22.75;17.55;;;5.30;99.90;;;;;;5050607;28;20069;-75
2021/04/18 08:43:18;;;;;;;22.10;16.58;;;5.30;99.90;;;;;;5035337;28;20098;-76
2021/04/18 08:45:52;;;;;;;21.67;15.15;;;5.30;99.90;;;;;;5057801;28;20136;-75
2021/04/18 08:48:18;;;;;;;23.92;17.45;;;5.30;99.90;;;;;;5057865;28;20535;-76
2021/04/18 08:51:00;;;;;;;21.65;15.20;;;5.30;99.90;;;;;;5059578;28;20097;-75
2021/04/18 08:53:28;;;;;;;23.45;16.45;;;5.30;99.90;;;;;;5055842;28;20490;-76
2021/04/18 08:56:02;;;;;;;20.30;15.20;;;5.30;99.90;;;;;;5051470;28;20085;-76
2021/04/18 08:58:33;;;;;;;23.90;16.35;;;5.30;99.90;;;;;;5061109;28;20073;-79
2021/04/18 09:01:10;;;;;;;25.17;17.83;;;5.30;99.90;;;;;;5048011;28;20085;-77
2021/04/18 09:03:58;;;;;;;23.52;16.08;;;5.30;99.90;;;;;;5069809;28;20581;-79
2021/04/18 09:06:33;;;;;;;28.35;17.70;;;5.40;99.90;;;;;;5055115;28;20081;-76
2021/04/18 09:08:58;;;;;;;;;;;5.50;99.90;;;;;;5043016;28;20098;-76
2021/04/18 09:11:24;;;;;;;28.65;20.20;;;5.50;99.90;;;;;;5065378;28;20000;-77
2021/04/18 09:13:58;;;;;;;29.48;20.77;;;5.60;99.90;;;;;;5065855;28;20096;-76
2021/04/18 09:16:25;;;;;;;24.80;17.58;;;5.60;99.90;;;;;;5056383;28;20070;-75
2021/04/18 09:18:51;;;;;;;25.75;18.35;;;5.60;99.90;;;;;;5055549;28;20191;-76
2021/04/18 09:21:17;;;;;;;22.42;16.70;;;5.60;99.90;;;;;;5059400;28;20087;-76
2021/04/18 09:23:57;;;;;;;24.58;18.00;;;5.70;99.90;;;;;;5063447;28;20113;-79
2021/04/18 09:26:23;;;;;;;23.42;16.95;;;5.70;99.90;;;;;;5036371;28;20108;-76
2021/04/18 09:29:06;;;;;;;23.30;16.20;;;5.80;99.90;;;;;;5055737;28;20097;-79
2021/04/18 09:31:32;;;;;;;24.30;17.38;;;5.80;99.90;;;;;;5038375;28;20085;-81
2021/04/18 09:34:05;;;;;;;23.58;17.33;;;5.90;99.90;;;;;;5067050;28;20155;-76
2021/04/18 09:36:31;;;;;;;24.20;17.38;;;5.80;99.90;;;;;;5034648;28;20135;-75
2021/04/18 09:38:58;;;;;;;23.83;16.45;;;5.90;99.90;;;;;;5053154;28;20101;-79
2021/04/18 09:41:26;;;;;;;23.70;16.58;;;5.80;99.90;;;;;;5044981;28;20073;-76
2021/04/18 09:43:59;;;;;;;22.70;16.65;;;5.80;99.90;;;;;;5069018;28;20107;-77
2021/04/18 09:46:27;;;;;;;25.27;19.10;;;5.90;99.90;;;;;;5066758;28;20112;-76
2021/04/18 09:49:11;;;;;;;30.90;21.13;;;5.90;99.90;;;;;;5041349;28;20085;-77
2021/04/18 09:51:58;;;;;;;21.42;14.93;;;5.90;99.90;;;;;;5059520;28;20167;-77
2021/04/18 09:54:33;;;;;;;21.75;16.30;;;6.00;99.90;;;;;;5053710;28;20528;-77
2021/04/18 09:57:39;;;;;;;22.75;15.77;;;6.00;99.90;;;;;;5040754;28;20079;-75
2021/04/18 10:00:06;;;;;;;24.73;14.13;;;6.00;99.90;;;;;;5004858;28;20081;-74
2021/04/18 10:02:31;;;;;;;21.00;15.68;;;6.00;99.90;;;;;;5034761;28;20084;-74
2021/04/18 10:05:16;;;;;;;23.38;17.23;;;6.10;99.90;;;;;;5051517;28;20098;-75
2021/04/18 10:07:42;;;;;;;24.63;16.75;;;6.20;99.90;;;;;;5050094;28;20073;-76
2021/04/18 10:10:12;;;;;;;24.42;16.50;;;6.10;99.90;;;;;;5051642;28;20161;-75
2021/04/18 10:12:51;;;;;;;23.63;15.93;;;6.10;99.90;;;;;;5045815;28;20096;-75
2021/04/18 10:15:18;;;;;;;21.50;16.48;;;6.00;99.90;;;;;;5053045;28;20081;-76
2021/04/18 10:17:44;;;;;;;21.83;15.90;;;6.00;99.90;;;;;;5037400;28;20061;-76
2021/04/18 10:20:10;;;;;;;22.20;16.30;;;6.00;99.90;;;;;;5058258;28;20096;-75
2021/04/18 10:22:36;;;;;;;27.55;20.38;;;6.00;99.90;;;;;;5060849;28;20156;-75
2021/04/18 10:25:07;;;;;;;24.67;18.27;;;6.00;99.90;;;;;;5051698;28;20164;-74
2021/04/18 10:27:33;;;;;;;25.83;18.13;;;6.00;99.90;;;;;;5049279;28;20607;-73
2021/04/18 10:30:04;;;;;;;21.05;15.07;;;5.90;99.90;;;;;;5061114;28;20081;-74
2021/04/18 10:32:29;;;;;;;28.83;20.70;;;5.90;99.90;;;;;;5051296;28;20223;-75
2021/04/18 10:34:55;;;;;;;24.55;15.45;;;5.90;99.90;;;;;;5047886;28;20234;-76
2021/04/18 10:37:21;;;;;;;28.33;19.23;;;5.90;99.90;;;;;;5050534;28;20158;-75
2021/04/18 10:39:46;;;;;;;36.83;25.95;;;5.90;99.90;;;;;;5054063;28;20080;-75
2021/04/18 10:42:12;;;;;;;24.40;17.83;;;5.90;99.90;;;;;;5054780;28;20100;-75
2021/04/18 10:44:39;;;;;;;20.42;15.02;;;5.90;99.90;;;;;;5049520;28;20127;-76
2021/04/18 10:47:11;;;;;;;24.45;15.05;;;6.00;99.90;;;;;;5062206;28;20473;-77
2021/04/18 10:49:36;;;;;;;19.70;14.75;;;6.00;99.90;;;;;;5048656;28;20077;-75
2021/04/18 10:52:02;;;;;;;22.52;15.45;;;6.10;99.90;;;;;;5041023;28;20100;-77
2021/04/18 10:54:28;;;;;;;21.10;14.98;;;6.20;99.90;;;;;;5062366;28;20126;-77
2021/04/18 10:56:54;;;;;;;22.20;15.82;;;6.10;99.90;;;;;;5056701;28;20156;-76
2021/04/18 10:59:21;;;;;;;19.08;14.15;;;6.10;99.90;;;;;;5060552;28;20080;-76
2021/04/18 11:01:48;;;;;;;25.38;18.23;;;6.10;99.90;;;;;;5057929;28;20455;-76
2021/04/18 11:04:15;;;;;;;19.30;15.05;;;6.10;99.90;;;;;;5062714;28;20080;-75
2021/04/18 11:06:41;;;;;;;20.50;15.13;;;6.20;99.90;;;;;;5039371;28;20600;-75
2021/04/18 11:09:06;;;;;;;16.58;11.68;;;6.20;99.90;;;;;;5063886;28;20076;-75
2021/04/18 11:11:32;;;;;;;17.95;12.65;;;6.20;99.90;;;;;;5066106;28;20090;-75
2021/04/18 11:13:59;;;;;;;18.02;13.70;;;6.20;99.90;;;;;;5060496;28;20587;-76
2021/04/18 11:16:24;;;;;;;19.65;13.90;;;6.30;99.90;;;;;;5067766;28;20088;-73
2021/04/18 11:18:51;;;;;;;19.63;13.32;;;6.30;99.90;;;;;;5067165;28;20077;-75
2021/04/18 11:21:17;;;;;;;16.98;12.85;;;6.40;99.90;;;;;;5054841;28;20082;-75
2021/04/18 11:23:42;;;;;;;18.33;12.65;;;6.40;99.90;;;;;;5067993;28;20084;-76
2021/04/18 11:26:08;;;;;;;17.73;12.82;;;6.20;99.90;;;;;;5058085;28;20081;-76
2021/04/18 11:28:33;;;;;;;21.08;13.85;;;6.40;99.90;;;;;;5059012;28;20088;-75
2021/04/18 11:30:59;;;;;;;17.27;13.13;;;6.40;99.90;;;;;;5065259;28;20174;-78
2021/04/18 11:33:25;;;;;;;18.58;13.02;;;6.50;99.90;;;;;;5048427;28;20089;-78
2021/04/18 11:35:51;;;;;;;16.60;12.60;;;6.50;99.90;;;;;;5056998;28;20078;-77
2021/04/18 11:38:17;;;;;;;18.30;13.30;;;6.60;99.90;;;;;;5051064;28;20073;-75
2021/04/18 11:40:42;;;;;;;18.23;12.32;;;6.70;99.90;;;;;;5059990;28;20103;-76
2021/04/18 11:43:08;;;;;;;19.20;13.85;;;6.70;99.90;;;;;;5070533;28;20150;-77
2021/04/18 11:45:34;;;;;;;16.40;12.88;;;6.70;99.90;;;;;;5041173;28;20507;-77
2021/04/18 11:48:00;;;;;;;17.40;12.68;;;6.80;99.90;;;;;;5065102;28;20518;-75
2021/04/18 11:50:26;;;;;;;19.98;12.85;;;6.70;99.90;;;;;;5055638;28;20453;-74
2021/04/18 11:52:52;;;;;;;17.52;13.27;;;6.80;99.90;;;;;;5032734;28;20124;-76
2021/04/18 11:55:20;;;;;;;18.73;13.32;;;6.90;99.90;;;;;;5062101;28;20073;-75
2021/04/18 11:57:46;;;;;;;16.30;12.77;;;7.00;99.90;;;;;;5050277;28;20507;-76
2021/04/18 12:00:12;;;;;;;24.10;19.15;;;6.90;99.90;;;;;;5057960;28;20120;-75
2021/04/18 12:02:38;;;;;;;19.25;13.95;;;6.90;99.90;;;;;;5062133;28;20551;-76
2021/04/18 12:05:05;;;;;;;24.13;17.27;;;6.90;99.90;;;;;;5062376;28;20088;-76
2021/04/18 12:07:31;;;;;;;24.02;16.75;;;6.80;99.90;;;;;;5059821;28;20156;-77
2021/04/18 12:09:56;;;;;;;20.23;13.98;;;6.80;99.90;;;;;;5058759;28;20166;-77
2021/04/18 12:12:22;;;;;;;23.17;16.38;;;6.90;99.90;;;;;;5069098;28;20100;-79
2021/04/18 12:14:50;;;;;;;22.50;15.40;;;6.90;99.90;;;;;;5058133;28;20081;-76
2021/04/18 12:17:16;;;;;;;25.90;19.35;;;6.80;99.90;;;;;;5057697;28;20068;-79
2021/04/18 12:19:42;;;;;;;21.17;16.15;;;6.80;99.90;;;;;;5040301;28;20111;-77
2021/04/18 12:22:08;;;;;;;18.27;14.05;;;6.80;99.90;;;;;;5054843;28;20729;-77
2021/04/18 12:24:33;;;;;;;23.85;16.25;;;6.60;99.90;;;;;;5065338;28;20172;-77
2021/04/18 12:26:59;;;;;;;24.63;17.50;;;6.70;99.90;;;;;;5064676;28;20109;-76
2021/04/18 12:29:24;;;;;;;25.08;16.00;;;6.70;99.90;;;;;;5068546;28;20146;-77
2021/04/18 12:31:50;;;;;;;25.67;17.48;;;6.70;99.90;;;;;;5050402;28;20146;-77
2021/04/18 12:34:16;;;;;;;20.20;14.38;;;6.70;99.90;;;;;;5062985;28;20093;-76
2021/04/18 12:36:41;;;;;;;60.13;32.10;;;6.80;99.90;;;;;;5050749;28;20542;-77
2021/04/18 12:39:08;;;;;;;23.95;16.95;;;6.80;99.90;;;;;;5060152;28;20073;-77